createdAt,value
2022-12-08T00:00:06.955Z,48.33
2022-12-08T00:01:08.671Z,46.30
2022-12-08T00:02:09.791Z,43.08
2022-12-08T00:03:11.290Z,51.97
2022-12-08T00:04:12.269Z,49.90
2022-12-08T00:05:31.437Z,51.93
2022-12-08T00:06:52.283Z,47.65
2022-12-08T00:08:11.488Z,43.80
2022-12-08T00:09:23.037Z,50.08
2022-12-08T00:10:47.677Z,52.83
2022-12-08T00:11:44.993Z,54.22
2022-12-08T00:12:46.483Z,55.15
2022-12-08T00:13:47.682Z,52.53
2022-12-08T00:14:49.213Z,56.03
2022-12-08T00:15:50.052Z,53.92
2022-12-08T00:16:51.469Z,48.33
2022-12-08T00:17:52.382Z,58.72
2022-12-08T00:18:53.589Z,58.13
2022-12-08T00:19:54.402Z,52.75
2022-12-08T00:20:55.605Z,45.13
2022-12-08T00:21:56.449Z,54.55
2022-12-08T00:22:57.617Z,48.33
2022-12-08T00:23:58.525Z,51.65
2022-12-08T00:24:59.665Z,48.95
2022-12-08T00:26:03.972Z,54.55
2022-12-08T00:27:05.569Z,53.00
2022-12-08T00:28:07.063Z,51.75
2022-12-08T00:29:10.920Z,56.45
2022-12-08T00:30:15.523Z,54.97
2022-12-08T00:31:17.005Z,60.40
2022-12-08T00:32:17.919Z,53.55
2022-12-08T00:33:19.126Z,58.13
2022-12-08T00:34:20.010Z,55.55
2022-12-08T00:35:21.266Z,47.53
2022-12-08T00:36:22.135Z,53.88
2022-12-08T00:37:23.279Z,47.03
2022-12-08T00:38:24.104Z,57.50
2022-12-08T00:39:25.312Z,59.42
2022-12-08T00:40:26.185Z,57.40
2022-12-08T00:41:45.719Z,48.05
2022-12-08T00:42:46.891Z,53.80
2022-12-08T00:43:48.386Z,61.58
2022-12-08T00:44:49.570Z,60.72
2022-12-08T00:45:50.493Z,58.63
2022-12-08T00:46:51.663Z,56.42
2022-12-08T00:47:52.665Z,56.85
2022-12-08T00:48:53.785Z,55.55
2022-12-08T00:49:54.961Z,53.42
2022-12-08T00:50:55.800Z,59.47
2022-12-08T00:51:56.968Z,61.03
2022-12-08T00:52:57.816Z,51.20
2022-12-08T00:53:58.992Z,51.83
2022-12-08T00:54:59.917Z,55.75
2022-12-08T00:56:01.086Z,60.47
2022-12-08T00:57:01.981Z,56.85
2022-12-08T00:58:03.139Z,57.87
2022-12-08T00:59:05.132Z,57.35
2022-12-08T01:01:09.327Z,44.30
2022-12-08T01:02:10.518Z,55.13
2022-12-08T01:03:11.535Z,49.63
2022-12-08T01:04:14.773Z,43.47
2022-12-08T01:05:15.757Z,51.85
2022-12-08T01:06:17.070Z,47.17
2022-12-08T01:07:17.894Z,45.60
2022-12-08T01:08:19.083Z,44.10
2022-12-08T01:09:19.956Z,46.30
2022-12-08T01:10:21.139Z,45.38
2022-12-08T01:11:21.954Z,46.53
2022-12-08T01:12:23.145Z,42.85
2022-12-08T01:13:23.954Z,50.47
2022-12-08T01:14:25.769Z,48.90
2022-12-08T01:15:26.650Z,56.85
2022-12-08T01:16:28.687Z,43.25
2022-12-08T01:17:29.627Z,53.38
2022-12-08T01:18:30.792Z,57.20
2022-12-08T01:19:31.937Z,49.58
2022-12-08T01:20:32.797Z,51.63
2022-12-08T01:21:33.944Z,44.85
2022-12-08T01:22:34.881Z,55.08
2022-12-08T01:23:36.035Z,50.03
2022-12-08T01:24:36.889Z,52.30
2022-12-08T01:25:38.085Z,51.57
2022-12-08T01:26:39.168Z,48.40
2022-12-08T01:27:40.301Z,50.60
2022-12-08T01:28:41.510Z,54.53
2022-12-08T01:29:43.310Z,47.08
2022-12-08T01:30:44.209Z,47.72
2022-12-08T01:31:45.489Z,54.50
2022-12-08T01:32:46.682Z,57.88
2022-12-08T01:33:48.583Z,58.05
2022-12-08T01:34:49.796Z,52.75
2022-12-08T01:35:50.685Z,57.28
2022-12-08T01:36:51.810Z,47.97
2022-12-08T01:37:52.633Z,51.58
2022-12-08T01:38:54.306Z,52.00
2022-12-08T01:39:55.448Z,53.83
2022-12-08T01:40:56.369Z,58.33
2022-12-08T01:41:57.502Z,52.60
2022-12-08T01:42:58.326Z,51.63
2022-12-08T01:44:01.041Z,52.57
2022-12-08T01:45:03.864Z,45.63
2022-12-08T01:46:05.257Z,48.20
2022-12-08T01:47:06.133Z,53.08
2022-12-08T01:48:08.972Z,43.47
2022-12-08T01:49:11.774Z,52.78
2022-12-08T01:50:14.501Z,51.65
2022-12-08T01:51:15.417Z,50.22
2022-12-08T01:52:19.547Z,55.20
2022-12-08T01:53:21.944Z,55.25
2022-12-08T01:54:24.601Z,58.15
2022-12-08T01:55:27.242Z,48.60
2022-12-08T01:56:32.173Z,46.60
2022-12-08T01:57:34.929Z,53.05
2022-12-08T01:58:37.137Z,56.58
2022-12-08T01:59:41.047Z,50.60
2022-12-08T02:00:43.032Z,45.70
2022-12-08T02:02:51.963Z,46.40
2022-12-08T02:03:55.878Z,51.00
2022-12-08T02:04:56.790Z,50.83
2022-12-08T02:05:58.153Z,54.50
2022-12-08T02:07:01.438Z,52.08
2022-12-08T02:08:07.319Z,57.35
2022-12-08T02:09:08.180Z,48.63
2022-12-08T02:10:10.741Z,57.10
2022-12-08T02:11:12.057Z,53.17
2022-12-08T02:12:13.312Z,55.70
2022-12-08T02:13:14.693Z,56.67
2022-12-08T02:14:15.890Z,47.40
2022-12-08T02:15:17.025Z,58.03
2022-12-08T02:16:25.868Z,53.75
2022-12-08T02:17:35.968Z,53.95
2022-12-08T02:18:43.084Z,53.47
2022-12-08T02:19:54.305Z,56.15
2022-12-08T02:20:58.426Z,55.28
2022-12-08T02:22:01.071Z,53.22
2022-12-08T02:23:06.494Z,48.50
2022-12-08T02:24:12.605Z,54.05
2022-12-08T02:25:20.909Z,47.13
2022-12-08T02:26:40.828Z,52.35
2022-12-08T02:27:46.800Z,54.20
2022-12-08T02:29:05.513Z,52.25
2022-12-08T02:30:12.140Z,51.83
2022-12-08T02:31:19.116Z,57.92
2022-12-08T02:32:31.165Z,44.28
2022-12-08T02:34:02.485Z,54.10
2022-12-08T02:35:09.966Z,56.03
2022-12-08T02:36:14.422Z,53.75
2022-12-08T02:37:17.368Z,49.63
2022-12-08T02:38:21.519Z,45.45
2022-12-08T02:39:26.612Z,46.10
2022-12-08T02:40:29.548Z,41.75
2022-12-08T02:41:35.761Z,49.13
2022-12-08T02:42:39.667Z,57.05
2022-12-08T02:43:41.906Z,54.08
2022-12-08T02:44:45.803Z,43.10
2022-12-08T02:45:48.284Z,49.15
2022-12-08T02:46:51.378Z,55.42
2022-12-08T02:47:52.525Z,52.53
2022-12-08T02:48:55.415Z,41.83
2022-12-08T02:49:57.217Z,53.33
2022-12-08T02:50:59.142Z,49.00
2022-12-08T02:52:07.150Z,49.05
2022-12-08T02:54:09.214Z,43.00
2022-12-08T02:55:18.447Z,45.73
2022-12-08T02:56:29.167Z,51.60
2022-12-08T02:57:35.894Z,47.25
2022-12-08T02:58:57.776Z,54.17
2022-12-08T03:00:05.654Z,57.45
2022-12-08T03:01:12.254Z,50.88
2022-12-08T03:02:22.293Z,55.85
2022-12-08T03:03:28.654Z,43.85
2022-12-08T03:04:33.831Z,49.08
2022-12-08T09:19:16.659Z,156.89
2022-12-08T09:21:19.625Z,143.45
2022-12-08T09:23:22.100Z,95.90
2022-12-08T09:24:23.305Z,155.67
2022-12-08T09:25:24.161Z,75.47
2022-12-08T09:26:25.881Z,108.28
2022-12-08T09:27:27.039Z,147.82
2022-12-08T09:28:27.874Z,169.23
2022-12-08T09:29:35.411Z,143.17
2022-12-08T09:30:37.262Z,85.05
2022-12-08T09:31:38.673Z,170.82
2022-12-08T09:32:40.108Z,105.75
2022-12-08T09:33:40.993Z,160.57
2022-12-08T09:34:45.365Z,144.60
2022-12-08T09:35:50.170Z,126.28
2022-12-08T09:36:51.036Z,121.80
2022-12-08T09:37:52.187Z,83.30
2022-12-08T09:38:53.924Z,97.43
2022-12-08T09:39:55.157Z,104.53
2022-12-08T09:40:56.385Z,86.30
2022-12-08T09:41:59.313Z,137.90
2022-12-08T09:43:04.628Z,131.48
2022-12-08T09:44:16.333Z,118.57
2022-12-08T09:45:18.061Z,94.93
2022-12-08T09:46:19.607Z,64.28
2022-12-08T09:47:21.767Z,152.55
2022-12-08T09:48:23.992Z,169.25
2022-12-08T09:49:29.810Z,133.25
2022-12-08T09:50:33.493Z,187.20
2022-12-08T09:51:37.322Z,125.72
2022-12-08T09:52:41.089Z,179.20
2022-12-08T09:53:45.069Z,171.60
2022-12-08T09:54:46.004Z,151.80
2022-12-08T09:55:50.180Z,144.97
2022-12-08T09:56:53.387Z,201.68
2022-12-08T09:57:59.530Z,91.32
2022-12-08T09:59:02.088Z,143.55
2022-12-08T10:00:06.073Z,164.55
2022-12-08T10:01:08.404Z,83.63
2022-12-08T10:02:19.175Z,142.45
2022-12-08T10:03:22.185Z,157.93
2022-12-08T10:04:25.669Z,132.10
2022-12-08T10:05:27.997Z,138.88
2022-12-08T10:06:31.452Z,140.65
2022-12-08T10:07:37.288Z,103.65
2022-12-08T10:08:41.878Z,127.45
2022-12-08T10:09:44.975Z,196.00
2022-12-08T10:10:47.279Z,89.15
2022-12-08T10:11:51.302Z,102.95
2022-12-08T10:12:54.376Z,154.82
2022-12-08T10:13:58.615Z,173.32
2022-12-08T10:15:07.883Z,146.30
2022-12-08T10:16:21.987Z,88.07
2022-12-08T10:17:26.452Z,81.80
2022-12-08T10:18:28.388Z,87.03
2022-12-08T10:20:35.299Z,156.00
2022-12-08T10:21:39.053Z,81.32
2022-12-08T10:22:44.748Z,116.03
2022-12-08T10:23:48.270Z,144.77
2022-12-08T10:24:55.666Z,109.47
2022-12-08T10:26:00.336Z,97.97
2022-12-08T10:27:01.849Z,178.85
2022-12-08T10:28:03.068Z,149.98
2022-12-08T10:29:05.760Z,140.48
2022-12-08T10:30:09.847Z,133.63
2022-12-08T10:31:15.203Z,185.93
2022-12-08T10:32:17.812Z,151.18
2022-12-08T10:33:19.617Z,110.18
2022-12-08T10:34:22.473Z,154.10
2022-12-08T10:35:24.647Z,114.28
2022-12-08T10:36:44.008Z,140.73
2022-12-08T10:37:54.264Z,121.65
2022-12-08T10:38:55.469Z,97.30
2022-12-08T10:40:00.817Z,127.70
2022-12-08T10:41:04.231Z,100.53
2022-12-08T10:42:16.330Z,157.35
2022-12-08T10:43:18.569Z,119.30
2022-12-08T10:44:19.789Z,175.57
2022-12-08T10:45:23.032Z,179.63
2022-12-08T10:46:25.227Z,164.95
2022-12-08T10:47:27.028Z,111.65
2022-12-08T10:48:30.423Z,97.50
2022-12-08T10:49:31.734Z,126.30
2022-12-08T10:50:34.715Z,150.88
2022-12-08T10:51:37.266Z,169.20
2022-12-08T10:52:38.678Z,180.38
2022-12-08T10:53:45.550Z,162.85
2022-12-08T10:54:51.127Z,117.25
2022-12-08T10:55:53.222Z,95.40
2022-12-08T10:56:54.685Z,173.00
2022-12-08T10:57:55.818Z,156.45
2022-12-08T10:59:11.520Z,116.72
2022-12-08T11:00:14.420Z,258.23
2022-12-08T11:01:18.132Z,169.98
2022-12-08T11:02:19.559Z,171.10
2022-12-08T11:03:22.837Z,123.35
2022-12-08T11:04:29.940Z,161.00
2022-12-08T11:05:31.789Z,94.43
2022-12-08T11:06:34.804Z,148.93
2022-12-08T11:07:35.968Z,98.45
2022-12-08T11:08:43.706Z,162.98
2022-12-08T11:09:48.290Z,147.20
2022-12-08T11:10:49.251Z,189.05
2022-12-08T11:11:51.338Z,195.43
2022-12-08T11:12:52.358Z,164.15
2022-12-08T11:13:53.618Z,144.33
2022-12-08T11:14:57.358Z,296.00
2022-12-08T11:15:59.079Z,144.18
2022-12-08T11:17:03.853Z,129.40
2022-12-08T11:18:09.749Z,104.13
2022-12-08T11:19:14.424Z,82.05
2022-12-08T11:20:20.666Z,147.98
2022-12-08T11:21:29.860Z,182.85
2022-12-08T11:22:32.012Z,219.68
2022-12-08T11:23:35.309Z,153.35
2022-12-08T11:24:37.825Z,201.02
2022-12-08T17:40:18.842Z,88.30
2022-12-08T17:42:25.113Z,60.33
2022-12-08T17:43:25.926Z,67.57
2022-12-08T17:44:27.720Z,146.67
2022-12-08T17:45:28.621Z,79.15
2022-12-08T17:46:29.839Z,99.50
2022-12-08T17:47:30.729Z,93.40
2022-12-08T17:48:34.004Z,67.67
2022-12-08T17:49:34.839Z,118.93
2022-12-08T17:50:37.644Z,119.00
2022-12-08T17:51:38.777Z,100.93
2022-12-08T17:52:39.933Z,105.20
2022-12-08T17:53:40.834Z,89.22
2022-12-08T17:54:42.003Z,238.60
2022-12-08T17:55:50.695Z,130.48
2022-12-08T17:56:51.879Z,129.23
2022-12-08T17:57:52.755Z,131.63
2022-12-08T17:58:55.013Z,83.35
2022-12-08T17:59:56.404Z,226.52
2022-12-08T18:00:57.662Z,130.18
2022-12-08T18:01:58.914Z,103.05
2022-12-08T18:03:00.106Z,233.77
2022-12-08T18:04:01.861Z,130.95
2022-12-08T18:05:02.798Z,81.35
2022-12-08T18:06:04.451Z,148.57
2022-12-08T18:07:05.297Z,175.73
2022-12-08T18:08:06.545Z,129.55
2022-12-08T18:09:07.800Z,87.72
2022-12-08T18:10:09.289Z,76.10
2022-12-08T18:11:11.866Z,132.70
2022-12-08T18:12:13.038Z,133.40
2022-12-08T18:13:13.860Z,99.82
2022-12-08T18:14:15.272Z,151.23
2022-12-08T18:15:17.544Z,178.68
2022-12-08T18:16:19.815Z,97.53
2022-12-08T18:17:20.825Z,231.25
2022-12-08T18:18:22.270Z,62.00
2022-12-08T18:19:23.102Z,133.25
2022-12-08T18:20:24.332Z,183.80
2022-12-08T18:21:25.187Z,237.43
2022-12-08T18:22:26.602Z,277.03
2022-12-08T18:23:27.461Z,176.98
2022-12-08T18:24:28.682Z,67.38
2022-12-08T18:25:29.624Z,166.43
2022-12-08T18:26:31.560Z,237.57
2022-12-08T18:28:33.535Z,118.25
2022-12-08T18:29:34.693Z,98.30
2022-12-08T18:30:36.081Z,139.52
2022-12-08T18:31:37.282Z,160.73
2022-12-08T18:32:38.101Z,153.50
2022-12-08T18:33:40.160Z,268.42
2022-12-08T18:34:41.313Z,144.10
2022-12-08T18:35:42.167Z,171.25
2022-12-08T18:36:43.335Z,154.10
2022-12-08T18:37:44.940Z,208.73
2022-12-08T18:38:46.358Z,194.52
2022-12-08T18:40:06.183Z,213.73
2022-12-08T18:41:08.279Z,208.40
2022-12-08T18:43:23.942Z,287.73
2022-12-08T18:44:24.864Z,279.27
2022-12-08T18:45:26.261Z,116.75
2022-12-08T18:46:27.444Z,155.25
2022-12-08T18:47:28.429Z,152.52
2022-12-08T18:48:29.643Z,143.93
2022-12-08T18:49:30.758Z,269.83
2022-12-08T18:50:31.581Z,157.20
2022-12-08T18:51:32.722Z,221.17
2022-12-08T18:52:33.667Z,176.90
2022-12-08T18:53:34.810Z,142.95
2022-12-08T18:54:58.224Z,121.47
2022-12-08T18:55:57.408Z,198.48
2022-12-08T18:56:58.237Z,166.02
2022-12-08T18:57:59.413Z,165.35
2022-12-08T18:59:03.951Z,196.30
2022-12-08T19:00:06.359Z,149.27
2022-12-08T19:01:12.858Z,152.75
2022-12-08T19:02:14.061Z,261.25
2022-12-08T19:03:15.270Z,145.95
2022-12-08T19:04:34.693Z,115.65
2022-12-08T19:05:37.810Z,275.10
2022-12-08T19:06:39.102Z,185.85
2022-12-08T19:07:41.951Z,186.90
2022-12-08T19:08:42.946Z,275.27
2022-12-08T19:09:44.137Z,260.47
2022-12-08T19:10:45.267Z,608.28
2022-12-08T19:11:46.133Z,189.35
2022-12-08T19:12:49.093Z,339.98
2022-12-08T19:13:50.041Z,249.10
2022-12-08T19:14:51.852Z,260.10
2022-12-08T19:15:52.750Z,457.83
2022-12-08T19:16:53.982Z,361.25
2022-12-08T19:17:55.138Z,172.40
2022-12-08T19:18:56.240Z,294.75
